Hovedside
METAR-TAF:

METAR-TAF

Lufthavner :

Sindal, Danmark

breddegrad: 57-30N, lengdegrad: 010-13E, høyde over havet: 28 m

Gjeldene værobservasjon

Denne rapporten ble laget for 3 timer og 46 minutter siden, klokken 13:50 UTC
Vind 9 kt fra Øst-sørøst
Temperatur 11°C
Luftfuktighet 94%
Trykk 1002 hPa
Sikt: 4000 m
Brutte skyer i en høyde av 400 ft
lette regnbyger

METAR: EKSN 181350Z 11009KT 4000 -SHRA BKN004 11/10 Q1002

Tid: 19:36 (17:36 UTC)

Varsel

Denne rapporten ble laget for 8 timer og 35 minutter siden, klokken 09:01 UTC
Varsel gyldig fra 18. klokken 09 UTC til 18. klokken 15 UTC
Vind 8 kt fra Øst-sørøst
Sikt 10 km eller mer
Få skyer i en høyde av 2500 ft
Midlertidig
fra 18. klokken 09 UTC til 18. klokken 15 UTC
Sikt: 3000 m
Brutte skyer i en høyde av 400 ft
Spredte skyer i en høyde av 2000 ft, Tårnskyer (cumulus).
regnbyger, dis

TAF: EKSN 180901Z 1809/1815 12008KT 9999 FEW025 TEMPO 1809/1815 3000 SHRA BR BKN004 SCT020TCU

Værobservasjoner og værvarsel for over 4000 flyplasser (METAR- og TAF-rapporter).

Tilgjengelige stasjoner er representert av de røde og gule prikkene på kartet.

Hold musepekeren over prikken for å se navnet på stasjonen.

Klikk så for å se værobservasjoner og -varsler.

For å forandre kartet kan du klikke på den grønne knappen med svart kryss for å zoome inn, på den grønne knappen med strek for å zoome ut, eller på de grønne pilene for å se tilstøtende kart.


METAR-TAF: